»·PEaware :: N971KV KBUR-KLAS

N971KV :: KBUR-KLAS

FLIGHT INFORMATION

Flight Status: Arrived
Operator: Privately registered:
United States
More flights under this callsign
Pilot: Konstantinos V. (22343)
Aircraft: BEECH AIRCRAFT BARON
(BE58)
More flights by this aircraft type
Origin: KBUR Bob Hope-Burbank
United States
Destination: KLAS McCarran Intl
United States
More flights between these airports :: More routes between these airports
Route: +VNY3 DAG CRESSO4
File this flight plan on PilotEdge
Remarks: I-5 RATING
Altitude:
(Current/Filed)
11,000ft
Speed:
(Current/Filed)
180kts
Departed: 01-Feb-19 05:40 PM
Arrived: 01-Feb-19 07:06 PM
Distance/Time
Traveled:
193nm/1:26
Distance/Time
To Go:
Arrived

Flight Plot

Page will automatically refresh every two minutes.

Flight plan parsing failed; only flown route is shown


Map Options




Map Legend


Flown Route
Filed Route
Departure Airport
Arrival Airport
Navaid (VOR, NDB)
Fix

Horizontal Profiles

Position Reports

Time Latitude Longitude Heading Altitude Ground
Speed
01-Feb-19 17:22 34.196337 -118.367568 358 780ft 0kts
01-Feb-19 17:23 34.196337 -118.367568 358 780ft 0kts
01-Feb-19 17:24 34.196337 -118.367568 358 780ft 0kts
01-Feb-19 17:25 34.196337 -118.367568 358 780ft 0kts
01-Feb-19 17:26 34.196337 -118.367568 358 780ft 0kts
01-Feb-19 17:27 34.196337 -118.367568 358 780ft 0kts
01-Feb-19 17:28 34.196337 -118.367568 358 780ft 0kts
01-Feb-19 17:29 34.196337 -118.367568 358 780ft 0kts
01-Feb-19 17:30 34.196337 -118.367568 358 780ft 0kts
01-Feb-19 17:31 34.196337 -118.367568 358 780ft 0kts
01-Feb-19 17:32 34.196337 -118.367568 358 780ft 0kts
01-Feb-19 17:33 34.196337 -118.367568 358 780ft 0kts
01-Feb-19 17:34 34.196500 -118.367398 84 780ft 3kts
01-Feb-19 17:35 34.196920 -118.367340 270 780ft 3kts
01-Feb-19 17:36 34.196949 -118.368793 283 780ft 4kts
01-Feb-19 17:37 34.197061 -118.369017 322 780ft 0kts
01-Feb-19 17:38 34.197061 -118.369017 322 780ft 0kts
01-Feb-19 17:39 34.197799 -118.362508 94 837ft 98kts
01-Feb-19 17:40 34.179697 -118.340374 212 2106ft 143kts
01-Feb-19 17:41 34.151793 -118.375777 244 3588ft 155kts
01-Feb-19 17:42 34.169866 -118.414805 308 4922ft 160kts
01-Feb-19 17:43 34.183419 -118.433121 308 5606ft 159kts
01-Feb-19 17:44 34.195760 -118.449792 307 6236ft 156kts
01-Feb-19 17:45 34.211377 -118.473246 296 7105ft 150kts
01-Feb-19 17:46 34.221530 -118.518405 268 8586ft 134kts
01-Feb-19 17:47 34.223048 -118.563873 272 9782ft 139kts
01-Feb-19 17:48 34.255688 -118.589716 333 10946ft 149kts
01-Feb-19 17:49 34.301120 -118.610635 359 10992ft 198kts
01-Feb-19 17:50 34.334768 -118.563817 64 11016ft 207kts
01-Feb-19 17:51 34.360755 -118.507867 64 11012ft 206kts
01-Feb-19 17:52 34.375889 -118.475531 63 11016ft 203kts
01-Feb-19 17:53 34.391450 -118.446868 55 11022ft 203kts
01-Feb-19 17:54 34.405518 -118.424466 55 11021ft 203kts
01-Feb-19 17:55 34.429495 -118.386386 55 11023ft 203kts
01-Feb-19 17:56 34.438788 -118.371605 55 11023ft 203kts
01-Feb-19 17:57 34.445479 -118.360957 55 11023ft 203kts
01-Feb-19 17:58 34.479747 -118.306373 55 11024ft 203kts
01-Feb-19 17:59 34.513856 -118.251948 55 11025ft 203kts
01-Feb-19 18:00 34.547872 -118.197538 55 11024ft 203kts
01-Feb-19 18:01 34.581205 -118.144125 55 11019ft 203kts
01-Feb-19 18:02 34.615308 -118.089405 55 11017ft 203kts
01-Feb-19 18:03 34.635228 -118.028862 86 11036ft 195kts
01-Feb-19 18:04 34.642336 -117.963071 86 11011ft 196kts
01-Feb-19 18:05 34.649454 -117.897558 87 11008ft 196kts
01-Feb-19 18:06 34.656586 -117.833624 86 11005ft 196kts
01-Feb-19 18:08 34.663706 -117.768358 86 11010ft 194kts
01-Feb-19 18:09 34.678242 -117.708813 77 11013ft 195kts
01-Feb-19 18:10 34.690258 -117.661995 77 11011ft 195kts
01-Feb-19 18:11 34.706376 -117.599024 77 11016ft 195kts
01-Feb-19 18:12 34.722484 -117.535911 77 11017ft 195kts
01-Feb-19 18:13 34.736397 -117.481269 77 11016ft 195kts
01-Feb-19 18:14 34.752441 -117.418130 77 11016ft 195kts
01-Feb-19 18:15 34.768472 -117.354895 77 11017ft 195kts
01-Feb-19 18:16 34.784471 -117.291624 77 11013ft 195kts
01-Feb-19 18:17 34.796458 -117.244115 77 11009ft 195kts
01-Feb-19 18:18 34.811919 -117.182716 77 11003ft 195kts
01-Feb-19 18:19 34.827836 -117.119353 77 10994ft 195kts
01-Feb-19 18:20 34.843400 -117.057298 77 10987ft 195kts
01-Feb-19 18:21 34.859204 -116.994089 77 10983ft 195kts
01-Feb-19 18:22 34.874899 -116.931159 77 10999ft 193kts
01-Feb-19 18:23 34.890493 -116.868948 78 10992ft 194kts
01-Feb-19 18:24 34.906202 -116.806208 78 10990ft 193kts
01-Feb-19 18:25 34.921754 -116.743444 79 10990ft 193kts
01-Feb-19 18:26 34.937317 -116.680429 79 10990ft 193kts
01-Feb-19 18:27 34.951176 -116.624175 79 10990ft 193kts
01-Feb-19 18:27 34.965144 -116.572198 68 10987ft 197kts
01-Feb-19 18:29 34.995209 -116.504588 67 10992ft 197kts
01-Feb-19 18:30 35.015622 -116.458649 67 10997ft 197kts
01-Feb-19 18:31 35.040442 -116.402674 68 10999ft 197kts
01-Feb-19 18:31 35.060106 -116.358215 68 11000ft 197kts
01-Feb-19 18:32 35.086214 -116.299137 68 11000ft 197kts
01-Feb-19 18:33 35.112164 -116.240333 68 11000ft 197kts
01-Feb-19 18:35 35.142485 -116.171496 68 11000ft 197kts
01-Feb-19 18:35 35.156549 -116.139520 68 11000ft 197kts
01-Feb-19 18:36 35.182502 -116.080434 68 11000ft 197kts
01-Feb-19 18:37 35.208416 -116.021334 68 11001ft 197kts
01-Feb-19 18:38 35.234202 -115.962418 68 11001ft 197kts
01-Feb-19 18:39 35.260138 -115.903062 68 11001ft 197kts
01-Feb-19 18:40 35.279677 -115.858702 68 11007ft 197kts
01-Feb-19 18:41 35.301231 -115.809450 68 11013ft 197kts
01-Feb-19 18:42 35.333775 -115.756107 53 11022ft 203kts
01-Feb-19 18:43 35.372308 -115.705029 53 11023ft 204kts
01-Feb-19 18:44 35.410582 -115.653949 53 11031ft 205kts
01-Feb-19 18:45 35.449101 -115.602446 53 11030ft 205kts
01-Feb-19 18:46 35.483695 -115.556117 53 11029ft 205kts
01-Feb-19 18:47 35.520160 -115.507225 53 11031ft 205kts
01-Feb-19 18:48 35.557774 -115.456745 53 11023ft 205kts
01-Feb-19 18:49 35.595990 -115.405386 53 11024ft 204kts
01-Feb-19 18:50 35.632268 -115.356575 53 11034ft 203kts
01-Feb-19 18:51 35.664470 -115.313192 53 11034ft 204kts
01-Feb-19 18:52 35.702613 -115.261721 53 11034ft 204kts
01-Feb-19 18:53 35.740809 -115.210093 53 11035ft 204kts
01-Feb-19 18:54 35.787609 -115.172281 12 10661ft 216kts
01-Feb-19 18:55 35.846677 -115.158516 12 9774ft 218kts
01-Feb-19 18:56 35.905948 -115.144890 12 8874ft 216kts
01-Feb-19 18:57 35.963456 -115.131830 12 7869ft 202kts
01-Feb-19 18:58 36.017349 -115.119861 12 6859ft 194kts
01-Feb-19 18:59 36.068950 -115.109209 12 6043ft 183kts
01-Feb-19 19:00 36.120552 -115.099238 12 5503ft 196kts
01-Feb-19 19:01 36.167676 -115.124255 309 5089ft 189kts
01-Feb-19 19:02 36.147980 -115.148834 137 3196ft 137kts
01-Feb-19 19:03 36.119460 -115.144705 205 2644ft 110kts
01-Feb-19 19:04 36.094375 -115.159011 211 2184ft 72kts
01-Feb-19 19:05 36.089285 -115.163390 307 2184ft 0kts
01-Feb-19 19:06 36.084808 -115.166410 206 2184ft 27kts
01-Feb-19 19:07 36.081438 -115.170020 273 2184ft 16kts
01-Feb-19 19:08 36.081712 -115.171318 289 2184ft 0kts

Navigation Log

Ident Type
Flight plan parsing failed, navigation log unavailable